sensor_id;sensor_type;location;lat;lon;timestamp;temperature;humidity
39219;DHT22;24934;52.752;6.964;2023-04-30T00:00:51;5.30;99.90
39219;DHT22;24934;52.752;6.964;2023-04-30T00:03:17;5.20;99.90
39219;DHT22;24934;52.752;6.964;2023-04-30T00:05:51;5.20;99.90
39219;DHT22;24934;52.752;6.964;2023-04-30T00:08:17;5.20;99.90
39219;DHT22;24934;52.752;6.964;2023-04-30T00:10:43;5.20;99.90
39219;DHT22;24934;52.752;6.964;2023-04-30T00:13:08;5.20;99.90
39219;DHT22;24934;52.752;6.964;2023-04-30T00:15:38;5.20;99.90
39219;DHT22;24934;52.752;6.964;2023-04-30T00:18:04;5.10;99.90
39219;DHT22;24934;52.752;6.964;2023-04-30T00:20:31;5.10;99.90
39219;DHT22;24934;52.752;6.964;2023-04-30T00:22:59;5.00;99.90
39219;DHT22;24934;52.752;6.964;2023-04-30T00:25:24;5.00;99.90
39219;DHT22;24934;52.752;6.964;2023-04-30T00:27:50;4.90;99.90
39219;DHT22;24934;52.752;6.964;2023-04-30T00:30:16;4.90;99.90
39219;DHT22;24934;52.752;6.964;2023-04-30T00:32:41;4.90;99.90
39219;DHT22;24934;52.752;6.964;2023-04-30T00:35:07;4.80;99.90
39219;DHT22;24934;52.752;6.964;2023-04-30T00:37:33;4.80;99.90
39219;DHT22;24934;52.752;6.964;2023-04-30T00:39:58;4.80;99.90
39219;DHT22;24934;52.752;6.964;2023-04-30T00:42:24;4.80;99.90
39219;DHT22;24934;52.752;6.964;2023-04-30T00:44:49;4.70;99.90
39219;DHT22;24934;52.752;6.964;2023-04-30T00:47:15;4.70;99.90
39219;DHT22;24934;52.752;6.964;2023-04-30T00:49:41;4.70;99.90
39219;DHT22;24934;52.752;6.964;2023-04-30T00:52:06;4.70;99.90
39219;DHT22;24934;52.752;6.964;2023-04-30T00:54:32;4.60;99.90
39219;DHT22;24934;52.752;6.964;2023-04-30T00:56:58;4.50;99.90
39219;DHT22;24934;52.752;6.964;2023-04-30T00:59:23;4.40;99.90
39219;DHT22;24934;52.752;6.964;2023-04-30T01:01:49;4.30;99.90
39219;DHT22;24934;52.752;6.964;2023-04-30T01:04:15;4.30;99.90
39219;DHT22;24934;52.752;6.964;2023-04-30T01:06:41;4.20;99.90
39219;DHT22;24934;52.752;6.964;2023-04-30T01:09:08;4.20;99.90
39219;DHT22;24934;52.752;6.964;2023-04-30T01:14:24;4.10;99.90
39219;DHT22;24934;52.752;6.964;2023-04-30T01:17:16;4.10;99.90
39219;DHT22;24934;52.752;6.964;2023-04-30T01:19:45;4.10;99.90
39219;DHT22;24934;52.752;6.964;2023-04-30T01:25:10;4.10;99.90
39219;DHT22;24934;52.752;6.964;2023-04-30T01:28:08;4.10;99.90
39219;DHT22;24934;52.752;6.964;2023-04-30T01:30:35;4.20;99.90
39219;DHT22;24934;52.752;6.964;2023-04-30T01:33:02;4.30;99.90
39219;DHT22;24934;52.752;6.964;2023-04-30T01:36:55;4.30;99.90
39219;DHT22;24934;52.752;6.964;2023-04-30T01:39:13;4.30;99.90
39219;DHT22;24934;52.752;6.964;2023-04-30T01:50:07;4.10;99.90
39219;DHT22;24934;52.752;6.964;2023-04-30T01:52:50;4.20;99.90
39219;DHT22;24934;52.752;6.964;2023-04-30T01:57:57;4.20;99.90
39219;DHT22;24934;52.752;6.964;2023-04-30T02:00:25;4.10;99.90
39219;DHT22;24934;52.752;6.964;2023-04-30T02:02:51;4.00;99.90
39219;DHT22;24934;52.752;6.964;2023-04-30T02:05:17;4.10;99.90
39219;DHT22;24934;52.752;6.964;2023-04-30T02:07:47;4.10;99.90
39219;DHT22;24934;52.752;6.964;2023-04-30T02:10:22;4.10;99.90
39219;DHT22;24934;52.752;6.964;2023-04-30T02:12:48;4.00;99.90
39219;DHT22;24934;52.752;6.964;2023-04-30T02:15:13;4.00;99.90
39219;DHT22;24934;52.752;6.964;2023-04-30T02:17:39;4.00;99.90
39219;DHT22;24934;52.752;6.964;2023-04-30T02:20:06;4.00;99.90
39219;DHT22;24934;52.752;6.964;2023-04-30T02:22:35;3.90;99.90
39219;DHT22;24934;52.752;6.964;2023-04-30T02:25:01;4.00;99.90
39219;DHT22;24934;52.752;6.964;2023-04-30T02:27:31;3.90;99.90
39219;DHT22;24934;52.752;6.964;2023-04-30T02:29:57;3.80;99.90
39219;DHT22;24934;52.752;6.964;2023-04-30T02:32:23;3.80;99.90
39219;DHT22;24934;52.752;6.964;2023-04-30T02:34:49;3.70;99.90
39219;DHT22;24934;52.752;6.964;2023-04-30T02:37:15;3.70;99.90
39219;DHT22;24934;52.752;6.964;2023-04-30T02:39:40;3.70;99.90
39219;DHT22;24934;52.752;6.964;2023-04-30T02:42:06;3.70;99.90
39219;DHT22;24934;52.752;6.964;2023-04-30T02:44:32;3.80;99.90
39219;DHT22;24934;52.752;6.964;2023-04-30T02:46:58;3.80;99.90
39219;DHT22;24934;52.752;6.964;2023-04-30T02:49:24;3.70;99.90
39219;DHT22;24934;52.752;6.964;2023-04-30T02:51:51;3.70;99.90
39219;DHT22;24934;52.752;6.964;2023-04-30T02:54:16;3.80;99.90
39219;DHT22;24934;52.752;6.964;2023-04-30T02:56:45;3.80;99.90
39219;DHT22;24934;52.752;6.964;2023-04-30T02:59:11;3.70;99.90
39219;DHT22;24934;52.752;6.964;2023-04-30T03:01:36;3.60;99.90
39219;DHT22;24934;52.752;6.964;2023-04-30T03:04:02;3.60;99.90
39219;DHT22;24934;52.752;6.964;2023-04-30T03:06:29;3.60;99.90
39219;DHT22;24934;52.752;6.964;2023-04-30T03:08:55;3.60;99.90
39219;DHT22;24934;52.752;6.964;2023-04-30T03:11:21;3.60;99.90
39219;DHT22;24934;52.752;6.964;2023-04-30T03:13:47;3.50;99.90
39219;DHT22;24934;52.752;6.964;2023-04-30T03:16:17;3.60;99.90
39219;DHT22;24934;52.752;6.964;2023-04-30T03:18:46;3.50;99.90
39219;DHT22;24934;52.752;6.964;2023-04-30T03:21:13;3.60;99.90
39219;DHT22;24934;52.752;6.964;2023-04-30T03:23:39;3.50;99.90
39219;DHT22;24934;52.752;6.964;2023-04-30T03:26:04;3.60;99.90
39219;DHT22;24934;52.752;6.964;2023-04-30T03:28:30;3.50;99.90
39219;DHT22;24934;52.752;6.964;2023-04-30T03:30:56;3.50;99.90
39219;DHT22;24934;52.752;6.964;2023-04-30T03:33:21;3.60;99.90
39219;DHT22;24934;52.752;6.964;2023-04-30T03:35:47;3.50;99.90
39219;DHT22;24934;52.752;6.964;2023-04-30T03:38:14;3.40;99.90
39219;DHT22;24934;52.752;6.964;2023-04-30T03:40:40;3.40;99.90
39219;DHT22;24934;52.752;6.964;2023-04-30T03:43:06;3.30;99.90
39219;DHT22;24934;52.752;6.964;2023-04-30T03:45:31;3.30;99.90
39219;DHT22;24934;52.752;6.964;2023-04-30T03:47:57;3.20;99.90
39219;DHT22;24934;52.752;6.964;2023-04-30T03:50:23;3.20;99.90
39219;DHT22;24934;52.752;6.964;2023-04-30T03:52:48;3.20;99.90
39219;DHT22;24934;52.752;6.964;2023-04-30T03:55:14;3.20;99.90
39219;DHT22;24934;52.752;6.964;2023-04-30T03:57:40;3.10;99.90
39219;DHT22;24934;52.752;6.964;2023-04-30T04:00:09;3.20;99.90
39219;DHT22;24934;52.752;6.964;2023-04-30T04:02:35;3.10;99.90
39219;DHT22;24934;52.752;6.964;2023-04-30T04:05:02;3.00;99.90
39219;DHT22;24934;52.752;6.964;2023-04-30T04:07:28;2.90;99.90
39219;DHT22;24934;52.752;6.964;2023-04-30T04:09:54;2.90;99.90
39219;DHT22;24934;52.752;6.964;2023-04-30T04:12:20;2.90;99.90
39219;DHT22;24934;52.752;6.964;2023-04-30T04:14:45;2.90;99.90
39219;DHT22;24934;52.752;6.964;2023-04-30T04:17:11;2.90;99.90
39219;DHT22;24934;52.752;6.964;2023-04-30T04:19:37;2.80;99.90
39219;DHT22;24934;52.752;6.964;2023-04-30T04:22:02;2.80;99.90
39219;DHT22;24934;52.752;6.964;2023-04-30T04:24:29;2.80;99.90
39219;DHT22;24934;52.752;6.964;2023-04-30T04:26:55;2.90;99.90
39219;DHT22;24934;52.752;6.964;2023-04-30T04:29:20;2.90;99.90
39219;DHT22;24934;52.752;6.964;2023-04-30T04:31:46;2.90;99.90
39219;DHT22;24934;52.752;6.964;2023-04-30T04:34:13;2.90;99.90
39219;DHT22;24934;52.752;6.964;2023-04-30T04:36:39;2.90;99.90
39219;DHT22;24934;52.752;6.964;2023-04-30T04:39:07;2.90;99.90
39219;DHT22;24934;52.752;6.964;2023-04-30T04:41:34;2.90;99.90
39219;DHT22;24934;52.752;6.964;2023-04-30T04:44:02;3.00;99.90
39219;DHT22;24934;52.752;6.964;2023-04-30T04:46:29;3.00;99.90
39219;DHT22;24934;52.752;6.964;2023-04-30T04:48:56;3.00;99.90
39219;DHT22;24934;52.752;6.964;2023-04-30T04:51:22;3.10;99.90
39219;DHT22;24934;52.752;6.964;2023-04-30T04:53:48;3.20;99.90
39219;DHT22;24934;52.752;6.964;2023-04-30T04:56:14;3.30;99.90
39219;DHT22;24934;52.752;6.964;2023-04-30T04:58:40;3.50;99.90
39219;DHT22;24934;52.752;6.964;2023-04-30T05:01:06;3.80;99.90
39219;DHT22;24934;52.752;6.964;2023-04-30T05:03:34;4.10;99.90
39219;DHT22;24934;52.752;6.964;2023-04-30T05:06:03;4.30;99.90
39219;DHT22;24934;52.752;6.964;2023-04-30T05:08:29;4.50;99.90
39219;DHT22;24934;52.752;6.964;2023-04-30T05:10:55;4.70;99.90
39219;DHT22;24934;52.752;6.964;2023-04-30T05:13:20;4.90;99.90
39219;DHT22;24934;52.752;6.964;2023-04-30T05:15:51;5.20;99.90
39219;DHT22;24934;52.752;6.964;2023-04-30T05:18:16;5.70;99.90
39219;DHT22;24934;52.752;6.964;2023-04-30T05:20:45;6.30;99.90
39219;DHT22;24934;52.752;6.964;2023-04-30T05:23:10;6.50;99.90
39219;DHT22;24934;52.752;6.964;2023-04-30T05:25:36;6.50;99.90
39219;DHT22;24934;52.752;6.964;2023-04-30T05:28:02;6.40;99.90
39219;DHT22;24934;52.752;6.964;2023-04-30T05:30:29;6.30;99.90
39219;DHT22;24934;52.752;6.964;2023-04-30T05:32:55;6.40;99.90
39219;DHT22;24934;52.752;6.964;2023-04-30T05:35:21;6.40;99.90
39219;DHT22;24934;52.752;6.964;2023-04-30T05:37:47;6.50;99.90
39219;DHT22;24934;52.752;6.964;2023-04-30T05:40:13;6.40;99.90
39219;DHT22;24934;52.752;6.964;2023-04-30T05:42:40;6.40;99.90
39219;DHT22;24934;52.752;6.964;2023-04-30T05:45:08;6.40;99.90
39219;DHT22;24934;52.752;6.964;2023-04-30T05:47:34;6.40;99.90
39219;DHT22;24934;52.752;6.964;2023-04-30T05:50:00;6.50;99.90
39219;DHT22;24934;52.752;6.964;2023-04-30T05:52:25;6.40;99.90
39219;DHT22;24934;52.752;6.964;2023-04-30T05:54:51;6.50;99.90
39219;DHT22;24934;52.752;6.964;2023-04-30T05:57:17;6.60;99.90
39219;DHT22;24934;52.752;6.964;2023-04-30T05:59:43;6.60;99.90
39219;DHT22;24934;52.752;6.964;2023-04-30T06:02:09;6.60;99.90
39219;DHT22;24934;52.752;6.964;2023-04-30T06:04:34;6.70;99.90
39219;DHT22;24934;52.752;6.964;2023-04-30T06:07:00;6.70;99.90
39219;DHT22;24934;52.752;6.964;2023-04-30T06:09:26;6.80;99.90
39219;DHT22;24934;52.752;6.964;2023-04-30T06:11:52;6.90;99.90
39219;DHT22;24934;52.752;6.964;2023-04-30T06:14:18;7.00;99.90
39219;DHT22;24934;52.752;6.964;2023-04-30T06:16:44;7.00;99.90
39219;DHT22;24934;52.752;6.964;2023-04-30T06:19:10;7.10;99.90
39219;DHT22;24934;52.752;6.964;2023-04-30T06:21:36;7.20;99.90
39219;DHT22;24934;52.752;6.964;2023-04-30T06:24:02;7.30;99.90
39219;DHT22;24934;52.752;6.964;2023-04-30T06:26:28;7.30;99.90
39219;DHT22;24934;52.752;6.964;2023-04-30T06:28:53;7.40;99.90
39219;DHT22;24934;52.752;6.964;2023-04-30T06:31:19;7.50;99.90
39219;DHT22;24934;52.752;6.964;2023-04-30T06:33:45;7.60;99.90
39219;DHT22;24934;52.752;6.964;2023-04-30T06:36:11;7.70;99.90
39219;DHT22;24934;52.752;6.964;2023-04-30T06:38:37;7.70;99.90
39219;DHT22;24934;52.752;6.964;2023-04-30T06:41:03;7.80;99.90
39219;DHT22;24934;52.752;6.964;2023-04-30T06:43:28;7.80;99.90
39219;DHT22;24934;52.752;6.964;2023-04-30T06:45:54;7.90;99.90
39219;DHT22;24934;52.752;6.964;2023-04-30T06:48:22;8.00;99.90
39219;DHT22;24934;52.752;6.964;2023-04-30T06:50:49;8.20;99.90
39219;DHT22;24934;52.752;6.964;2023-04-30T06:53:17;8.60;99.90
39219;DHT22;24934;52.752;6.964;2023-04-30T06:55:44;8.90;99.90
39219;DHT22;24934;52.752;6.964;2023-04-30T06:58:11;9.00;99.90
39219;DHT22;24934;52.752;6.964;2023-04-30T07:00:36;9.20;99.90
39219;DHT22;24934;52.752;6.964;2023-04-30T07:03:02;9.30;99.90
39219;DHT22;24934;52.752;6.964;2023-04-30T07:05:29;9.40;99.90
39219;DHT22;24934;52.752;6.964;2023-04-30T07:08:00;9.70;99.90
39219;DHT22;24934;52.752;6.964;2023-04-30T07:10:26;10.00;99.90
39219;DHT22;24934;52.752;6.964;2023-04-30T07:12:52;10.40;99.90
39219;DHT22;24934;52.752;6.964;2023-04-30T07:15:17;10.40;99.90
39219;DHT22;24934;52.752;6.964;2023-04-30T07:17:45;10.20;99.90
39219;DHT22;24934;52.752;6.964;2023-04-30T07:20:11;10.00;99.90
39219;DHT22;24934;52.752;6.964;2023-04-30T07:22:39;10.00;99.90
39219;DHT22;24934;52.752;6.964;2023-04-30T07:25:05;9.90;99.90
39219;DHT22;24934;52.752;6.964;2023-04-30T07:27:32;9.80;99.90
39219;DHT22;24934;52.752;6.964;2023-04-30T07:29:58;10.00;99.90
39219;DHT22;24934;52.752;6.964;2023-04-30T07:32:24;10.00;99.90
39219;DHT22;24934;52.752;6.964;2023-04-30T07:34:53;10.10;99.90
39219;DHT22;24934;52.752;6.964;2023-04-30T07:37:19;10.50;99.90
39219;DHT22;24934;52.752;6.964;2023-04-30T07:39:44;11.50;99.90
39219;DHT22;24934;52.752;6.964;2023-04-30T07:42:15;12.50;99.90
39219;DHT22;24934;52.752;6.964;2023-04-30T07:44:41;13.40;99.90
39219;DHT22;24934;52.752;6.964;2023-04-30T07:47:07;14.10;99.90
39219;DHT22;24934;52.752;6.964;2023-04-30T07:49:33;14.60;99.90
39219;DHT22;24934;52.752;6.964;2023-04-30T07:51:59;15.10;99.90
39219;DHT22;24934;52.752;6.964;2023-04-30T07:54:26;16.10;99.90
39219;DHT22;24934;52.752;6.964;2023-04-30T07:56:52;17.30;99.90
39219;DHT22;24934;52.752;6.964;2023-04-30T07:59:17;17.90;99.90
39219;DHT22;24934;52.752;6.964;2023-04-30T08:01:43;18.50;99.90
39219;DHT22;24934;52.752;6.964;2023-04-30T08:04:09;18.90;99.90
39219;DHT22;24934;52.752;6.964;2023-04-30T08:06:35;19.20;99.90
39219;DHT22;24934;52.752;6.964;2023-04-30T08:09:01;19.70;99.90
39219;DHT22;24934;52.752;6.964;2023-04-30T08:11:26;20.30;99.90
39219;DHT22;24934;52.752;6.964;2023-04-30T08:13:52;20.30;99.90
39219;DHT22;24934;52.752;6.964;2023-04-30T08:16:18;20.60;99.90
39219;DHT22;24934;52.752;6.964;2023-04-30T08:18:44;20.60;99.50
39219;DHT22;24934;52.752;6.964;2023-04-30T08:21:12;20.70;99.80
39219;DHT22;24934;52.752;6.964;2023-04-30T08:23:43;21.20;99.50
39219;DHT22;24934;52.752;6.964;2023-04-30T08:26:08;21.60;98.90
39219;DHT22;24934;52.752;6.964;2023-04-30T08:28:34;21.70;97.80
39219;DHT22;24934;52.752;6.964;2023-04-30T08:31:00;21.40;98.00
39219;DHT22;24934;52.752;6.964;2023-04-30T08:33:26;21.50;98.80
39219;DHT22;24934;52.752;6.964;2023-04-30T08:35:51;21.80;96.90
39219;DHT22;24934;52.752;6.964;2023-04-30T08:38:18;21.90;97.60
39219;DHT22;24934;52.752;6.964;2023-04-30T08:40:50;23.10;95.50
39219;DHT22;24934;52.752;6.964;2023-04-30T08:43:17;22.60;95.10
39219;DHT22;24934;52.752;6.964;2023-04-30T08:45:43;22.30;95.50
39219;DHT22;24934;52.752;6.964;2023-04-30T08:48:10;21.60;94.70
39219;DHT22;24934;52.752;6.964;2023-04-30T08:50:40;20.70;95.40
39219;DHT22;24934;52.752;6.964;2023-04-30T08:53:10;21.30;96.90
39219;DHT22;24934;52.752;6.964;2023-04-30T08:55:38;22.10;95.90
39219;DHT22;24934;52.752;6.964;2023-04-30T08:58:04;22.10;95.30
39219;DHT22;24934;52.752;6.964;2023-04-30T09:00:31;22.80;95.50
39219;DHT22;24934;52.752;6.964;2023-04-30T09:02:57;23.50;95.00
39219;DHT22;24934;52.752;6.964;2023-04-30T09:05:23;23.80;94.00
39219;DHT22;24934;52.752;6.964;2023-04-30T09:07:48;23.40;93.00
39219;DHT22;24934;52.752;6.964;2023-04-30T09:10:19;23.10;93.40
39219;DHT22;24934;52.752;6.964;2023-04-30T09:15:24;23.30;93.40
39219;DHT22;24934;52.752;6.964;2023-04-30T09:17:50;22.40;93.00
39219;DHT22;24934;52.752;6.964;2023-04-30T09:20:18;21.20;94.20
39219;DHT22;24934;52.752;6.964;2023-04-30T09:22:44;21.50;96.10
39219;DHT22;24934;52.752;6.964;2023-04-30T09:25:09;21.40;95.30
39219;DHT22;24934;52.752;6.964;2023-04-30T09:27:35;21.20;96.20
39219;DHT22;24934;52.752;6.964;2023-04-30T09:30:02;20.50;95.20
39219;DHT22;24934;52.752;6.964;2023-04-30T09:32:33;19.90;95.60
39219;DHT22;24934;52.752;6.964;2023-04-30T09:35:01;19.60;96.10
39219;DHT22;24934;52.752;6.964;2023-04-30T09:37:36;18.70;97.90
39219;DHT22;24934;52.752;6.964;2023-04-30T09:40:03;18.80;97.50
39219;DHT22;24934;52.752;6.964;2023-04-30T09:42:28;18.20;98.40
39219;DHT22;24934;52.752;6.964;2023-04-30T09:45:00;18.00;99.50
39219;DHT22;24934;52.752;6.964;2023-04-30T09:47:28;17.60;99.70
39219;DHT22;24934;52.752;6.964;2023-04-30T09:49:58;17.70;99.70
39219;DHT22;24934;52.752;6.964;2023-04-30T09:52:24;18.00;99.90
39219;DHT22;24934;52.752;6.964;2023-04-30T09:54:50;18.30;98.80
39219;DHT22;24934;52.752;6.964;2023-04-30T09:57:15;18.30;99.20
39219;DHT22;24934;52.752;6.964;2023-04-30T09:59:45;17.80;99.10
39219;DHT22;24934;52.752;6.964;2023-04-30T10:02:14;18.10;99.30
39219;DHT22;24934;52.752;6.964;2023-04-30T10:04:48;18.40;99.00
39219;DHT22;24934;52.752;6.964;2023-04-30T10:07:19;18.40;99.10
39219;DHT22;24934;52.752;6.964;2023-04-30T10:09:50;18.80;98.90
39219;DHT22;24934;52.752;6.964;2023-04-30T10:12:21;19.10;99.90
39219;DHT22;24934;52.752;6.964;2023-04-30T10:14:58;19.60;99.30
39219;DHT22;24934;52.752;6.964;2023-04-30T10:17:48;20.10;97.80
39219;DHT22;24934;52.752;6.964;2023-04-30T10:20:25;20.50;96.30
39219;DHT22;24934;52.752;6.964;2023-04-30T10:22:54;20.50;97.40
39219;DHT22;24934;52.752;6.964;2023-04-30T10:25:21;20.90;97.00
39219;DHT22;24934;52.752;6.964;2023-04-30T10:27:49;21.10;96.50
39219;DHT22;24934;52.752;6.964;2023-04-30T10:30:16;21.70;96.60
39219;DHT22;24934;52.752;6.964;2023-04-30T10:35:24;21.80;95.50
39219;DHT22;24934;52.752;6.964;2023-04-30T10:38:07;22.40;94.40
39219;DHT22;24934;52.752;6.964;2023-04-30T10:40:38;22.30;94.00
39219;DHT22;24934;52.752;6.964;2023-04-30T10:43:03;22.40;94.10
39219;DHT22;24934;52.752;6.964;2023-04-30T10:45:37;22.40;94.00
39219;DHT22;24934;52.752;6.964;2023-04-30T10:48:05;22.30;93.60
39219;DHT22;24934;52.752;6.964;2023-04-30T10:50:31;22.60;93.90
39219;DHT22;24934;52.752;6.964;2023-04-30T10:53:01;22.90;94.60
39219;DHT22;24934;52.752;6.964;2023-04-30T10:55:29;23.00;92.70
39219;DHT22;24934;52.752;6.964;2023-04-30T10:57:54;23.00;94.20
39219;DHT22;24934;52.752;6.964;2023-04-30T11:00:27;23.10;93.50
39219;DHT22;24934;52.752;6.964;2023-04-30T11:02:57;23.10;92.80
39219;DHT22;24934;52.752;6.964;2023-04-30T11:05:37;22.60;92.60
39219;DHT22;24934;52.752;6.964;2023-04-30T11:08:03;22.30;94.80
39219;DHT22;24934;52.752;6.964;2023-04-30T11:10:33;21.60;93.40
39219;DHT22;24934;52.752;6.964;2023-04-30T11:13:03;21.20;95.20
39219;DHT22;24934;52.752;6.964;2023-04-30T11:15:40;21.40;94.40
39219;DHT22;24934;52.752;6.964;2023-04-30T11:18:07;21.80;94.40
39219;DHT22;24934;52.752;6.964;2023-04-30T11:20:47;21.50;94.60
39219;DHT22;24934;52.752;6.964;2023-04-30T11:23:14;22.10;96.00
39219;DHT22;24934;52.752;6.964;2023-04-30T11:25:45;22.10;94.10
39219;DHT22;24934;52.752;6.964;2023-04-30T11:28:20;21.60;95.50
39219;DHT22;24934;52.752;6.964;2023-04-30T11:30:58;21.60;95.00
39219;DHT22;24934;52.752;6.964;2023-04-30T11:33:26;22.20;94.70
39219;DHT22;24934;52.752;6.964;2023-04-30T11:35:53;22.00;95.00
39219;DHT22;24934;52.752;6.964;2023-04-30T11:38:22;22.00;95.60
39219;DHT22;24934;52.752;6.964;2023-04-30T11:40:51;22.30;94.00
39219;DHT22;24934;52.752;6.964;2023-04-30T11:43:21;21.70;93.80
39219;DHT22;24934;52.752;6.964;2023-04-30T11:46:08;21.60;95.10
39219;DHT22;24934;52.752;6.964;2023-04-30T11:48:39;22.10;95.50
39219;DHT22;24934;52.752;6.964;2023-04-30T11:53:39;21.40;95.30
39219;DHT22;24934;52.752;6.964;2023-04-30T11:56:06;21.30;96.00
39219;DHT22;24934;52.752;6.964;2023-04-30T11:58:33;21.50;96.50
39219;DHT22;24934;52.752;6.964;2023-04-30T12:01:00;21.80;95.10
39219;DHT22;24934;52.752;6.964;2023-04-30T12:03:25;21.00;95.50
39219;DHT22;24934;52.752;6.964;2023-04-30T12:05:51;20.70;96.50
39219;DHT22;24934;52.752;6.964;2023-04-30T12:08:18;20.70;96.90
39219;DHT22;24934;52.752;6.964;2023-04-30T12:10:44;20.40;96.90
39219;DHT22;24934;52.752;6.964;2023-04-30T12:13:13;20.30;97.00
39219;DHT22;24934;52.752;6.964;2023-04-30T12:15:39;20.40;97.40
39219;DHT22;24934;52.752;6.964;2023-04-30T12:18:11;20.40;97.70
39219;DHT22;24934;52.752;6.964;2023-04-30T12:20:38;20.30;97.30
39219;DHT22;24934;52.752;6.964;2023-04-30T12:23:05;20.10;97.00
39219;DHT22;24934;52.752;6.964;2023-04-30T12:25:41;19.90;97.10
39219;DHT22;24934;52.752;6.964;2023-04-30T12:28:09;19.70;97.90
39219;DHT22;24934;52.752;6.964;2023-04-30T12:30:35;19.80;98.70
39219;DHT22;24934;52.752;6.964;2023-04-30T12:33:02;19.80;98.90
39219;DHT22;24934;52.752;6.964;2023-04-30T12:35:29;20.20;99.00
39219;DHT22;24934;52.752;6.964;2023-04-30T12:38:16;20.40;97.00
39219;DHT22;24934;52.752;6.964;2023-04-30T12:40:46;20.20;96.90
39219;DHT22;24934;52.752;6.964;2023-04-30T12:43:16;20.00;97.70
39219;DHT22;24934;52.752;6.964;2023-04-30T12:45:52;19.50;98.20
39219;DHT22;24934;52.752;6.964;2023-04-30T12:48:22;18.60;97.80
39219;DHT22;24934;52.752;6.964;2023-04-30T12:50:53;18.30;98.50
39219;DHT22;24934;52.752;6.964;2023-04-30T12:53:20;18.50;99.20
39219;DHT22;24934;52.752;6.964;2023-04-30T12:56:11;18.40;99.60
39219;DHT22;24934;52.752;6.964;2023-04-30T12:58:39;18.70;99.90
39219;DHT22;24934;52.752;6.964;2023-04-30T13:01:09;18.90;99.90
39219;DHT22;24934;52.752;6.964;2023-04-30T13:03:36;19.10;99.50
39219;DHT22;24934;52.752;6.964;2023-04-30T13:06:01;19.00;97.40
39219;DHT22;24934;52.752;6.964;2023-04-30T13:08:29;19.00;97.90
39219;DHT22;24934;52.752;6.964;2023-04-30T13:10:54;18.60;98.50
39219;DHT22;24934;52.752;6.964;2023-04-30T13:13:20;18.60;98.60
39219;DHT22;24934;52.752;6.964;2023-04-30T13:15:45;18.40;98.60
39219;DHT22;24934;52.752;6.964;2023-04-30T13:18:11;18.70;98.40
39219;DHT22;24934;52.752;6.964;2023-04-30T13:20:39;19.50;99.30
39219;DHT22;24934;52.752;6.964;2023-04-30T13:23:05;19.30;97.80
39219;DHT22;24934;52.752;6.964;2023-04-30T13:25:32;19.20;97.90
39219;DHT22;24934;52.752;6.964;2023-04-30T13:27:58;18.90;99.20
39219;DHT22;24934;52.752;6.964;2023-04-30T13:30:24;18.80;98.60
39219;DHT22;24934;52.752;6.964;2023-04-30T13:32:50;18.70;99.60
39219;DHT22;24934;52.752;6.964;2023-04-30T13:35:23;18.70;98.50
39219;DHT22;24934;52.752;6.964;2023-04-30T13:37:48;19.10;99.70
39219;DHT22;24934;52.752;6.964;2023-04-30T13:40:17;19.10;98.60
39219;DHT22;24934;52.752;6.964;2023-04-30T13:42:44;19.10;99.90
39219;DHT22;24934;52.752;6.964;2023-04-30T13:45:10;19.40;97.70
39219;DHT22;24934;52.752;6.964;2023-04-30T13:47:36;19.40;98.60
39219;DHT22;24934;52.752;6.964;2023-04-30T13:50:03;18.80;98.70
39219;DHT22;24934;52.752;6.964;2023-04-30T13:52:30;18.60;98.60
39219;DHT22;24934;52.752;6.964;2023-04-30T13:54:55;18.80;99.70
39219;DHT22;24934;52.752;6.964;2023-04-30T13:57:23;18.90;98.70
39219;DHT22;24934;52.752;6.964;2023-04-30T13:59:49;19.20;99.40
39219;DHT22;24934;52.752;6.964;2023-04-30T14:02:15;19.40;98.60
39219;DHT22;24934;52.752;6.964;2023-04-30T14:04:40;19.90;97.30
39219;DHT22;24934;52.752;6.964;2023-04-30T14:07:06;19.60;98.40
39219;DHT22;24934;52.752;6.964;2023-04-30T14:09:32;19.30;97.70
39219;DHT22;24934;52.752;6.964;2023-04-30T14:11:57;19.20;97.90
39219;DHT22;24934;52.752;6.964;2023-04-30T14:14:24;19.40;98.40
39219;DHT22;24934;52.752;6.964;2023-04-30T14:16:50;19.30;99.40
39219;DHT22;24934;52.752;6.964;2023-04-30T14:19:16;19.30;98.90
39219;DHT22;24934;52.752;6.964;2023-04-30T14:21:42;18.90;99.50
39219;DHT22;24934;52.752;6.964;2023-04-30T14:24:08;18.50;99.40
39219;DHT22;24934;52.752;6.964;2023-04-30T14:26:37;18.40;99.90
39219;DHT22;24934;52.752;6.964;2023-04-30T14:29:03;18.50;99.70
39219;DHT22;24934;52.752;6.964;2023-04-30T14:31:29;18.70;99.90
39219;DHT22;24934;52.752;6.964;2023-04-30T14:33:54;19.40;98.80
39219;DHT22;24934;52.752;6.964;2023-04-30T14:36:20;19.20;97.30
39219;DHT22;24934;52.752;6.964;2023-04-30T14:38:46;18.80;97.70
39219;DHT22;24934;52.752;6.964;2023-04-30T14:41:12;18.70;98.40
39219;DHT22;24934;52.752;6.964;2023-04-30T14:43:39;19.00;98.20
39219;DHT22;24934;52.752;6.964;2023-04-30T14:46:05;19.20;99.10
39219;DHT22;24934;52.752;6.964;2023-04-30T14:48:31;19.50;99.30
39219;DHT22;24934;52.752;6.964;2023-04-30T14:50:58;19.90;98.50
39219;DHT22;24934;52.752;6.964;2023-04-30T14:53:23;19.90;98.40
39219;DHT22;24934;52.752;6.964;2023-04-30T14:55:49;19.70;97.10
39219;DHT22;24934;52.752;6.964;2023-04-30T14:58:15;19.50;97.30
39219;DHT22;24934;52.752;6.964;2023-04-30T15:00:40;19.90;97.70
39219;DHT22;24934;52.752;6.964;2023-04-30T15:03:06;19.40;96.60
39219;DHT22;24934;52.752;6.964;2023-04-30T15:05:31;19.30;98.00
39219;DHT22;24934;52.752;6.964;2023-04-30T15:07:57;19.40;98.10
39219;DHT22;24934;52.752;6.964;2023-04-30T15:10:23;19.20;98.30
39219;DHT22;24934;52.752;6.964;2023-04-30T15:12:48;19.10;98.50
39219;DHT22;24934;52.752;6.964;2023-04-30T15:15:14;19.00;98.10
39219;DHT22;24934;52.752;6.964;2023-04-30T15:17:39;18.90;98.30
39219;DHT22;24934;52.752;6.964;2023-04-30T15:20:06;18.80;98.80
39219;DHT22;24934;52.752;6.964;2023-04-30T15:22:32;18.50;97.30
39219;DHT22;24934;52.752;6.964;2023-04-30T15:24:58;18.60;97.60
39219;DHT22;24934;52.752;6.964;2023-04-30T15:27:26;18.50;98.50
39219;DHT22;24934;52.752;6.964;2023-04-30T15:29:52;18.50;98.30
39219;DHT22;24934;52.752;6.964;2023-04-30T15:32:18;18.40;98.80
39219;DHT22;24934;52.752;6.964;2023-04-30T15:34:44;18.20;97.90
39219;DHT22;24934;52.752;6.964;2023-04-30T15:37:10;18.10;98.90
39219;DHT22;24934;52.752;6.964;2023-04-30T15:39:36;18.00;99.10
39219;DHT22;24934;52.752;6.964;2023-04-30T15:42:01;17.90;98.20
39219;DHT22;24934;52.752;6.964;2023-04-30T15:44:27;17.90;99.90
39219;DHT22;24934;52.752;6.964;2023-04-30T15:46:53;17.80;99.20
39219;DHT22;24934;52.752;6.964;2023-04-30T15:49:20;17.80;99.60
39219;DHT22;24934;52.752;6.964;2023-04-30T15:51:47;17.60;98.60
39219;DHT22;24934;52.752;6.964;2023-04-30T15:54:13;17.40;99.80
39219;DHT22;24934;52.752;6.964;2023-04-30T15:56:39;17.10;99.90
39219;DHT22;24934;52.752;6.964;2023-04-30T15:59:05;17.10;99.90
39219;DHT22;24934;52.752;6.964;2023-04-30T16:01:31;17.20;99.90
39219;DHT22;24934;52.752;6.964;2023-04-30T16:03:57;17.40;99.90